createdAt,value
2023-03-31T00:02:07.512Z,71.98
2023-03-31T00:04:36.906Z,71.88
2023-03-31T00:07:06.070Z,71.53
2023-03-31T00:09:33.573Z,71.96
2023-03-31T00:12:00.380Z,72.28
2023-03-31T00:14:27.006Z,72.36
2023-03-31T00:16:53.884Z,72.28
2023-03-31T00:19:21.272Z,73.07
2023-03-31T00:21:48.574Z,74.45
2023-03-31T00:24:16.327Z,76.02
2023-03-31T00:26:43.631Z,78.04
2023-03-31T00:29:14.550Z,78.62
2023-03-31T00:31:41.285Z,78.35
2023-03-31T00:34:07.928Z,77.49
2023-03-31T00:36:38.866Z,78.08
2023-03-31T00:39:18.763Z,77.80
2023-03-31T00:41:45.770Z,76.94
2023-03-31T00:44:14.330Z,76.94
2023-03-31T00:47:02.435Z,76.92
2023-03-31T00:49:40.746Z,77.33
2023-03-31T00:52:13.582Z,77.98
2023-03-31T00:54:42.967Z,77.78
2023-03-31T00:57:10.309Z,77.51
2023-03-31T00:59:43.012Z,76.06
2023-03-31T01:02:10.084Z,76.86
2023-03-31T01:04:41.640Z,75.99
2023-03-31T01:07:17.092Z,76.69
2023-03-31T01:09:47.944Z,75.99
2023-03-31T01:12:16.487Z,74.85
2023-03-31T01:14:43.474Z,74.86
2023-03-31T01:17:10.649Z,75.54
2023-03-31T01:20:01.719Z,75.21
2023-03-31T01:22:46.070Z,73.95
2023-03-31T01:25:42.308Z,74.27
2023-03-31T01:28:16.217Z,72.98
2023-03-31T01:30:46.182Z,72.82
2023-03-31T01:33:18.903Z,72.53
2023-03-31T01:35:54.467Z,72.60
2023-03-31T01:38:33.583Z,72.89
2023-03-31T01:41:08.901Z,71.59
2023-03-31T01:46:36.431Z,71.48
2023-03-31T01:49:18.347Z,70.70
2023-03-31T01:51:51.986Z,71.14
2023-03-31T01:54:18.583Z,71.16
2023-03-31T01:57:08.576Z,70.53
2023-03-31T01:59:40.422Z,70.17
2023-03-31T02:02:33.483Z,71.51
2023-03-31T02:05:05.562Z,71.16
2023-03-31T02:07:34.949Z,70.82
2023-03-31T02:10:04.737Z,71.89
2023-03-31T02:12:31.964Z,70.38
2023-03-31T02:15:00.806Z,70.67
2023-03-31T02:17:30.456Z,70.87
2023-03-31T02:19:59.376Z,71.48
2023-03-31T02:22:27.558Z,71.95
2023-03-31T02:24:55.456Z,71.36
2023-03-31T02:27:24.474Z,71.26
2023-03-31T02:29:51.806Z,70.72
2023-03-31T02:32:32.617Z,70.14
2023-03-31T02:35:00.908Z,70.43
2023-03-31T02:37:28.901Z,70.44
2023-03-31T02:39:56.512Z,69.55
2023-03-31T02:42:23.637Z,69.66
2023-03-31T02:44:54.469Z,69.41
2023-03-31T02:47:22.105Z,69.83
2023-03-31T02:49:50.976Z,69.20
2023-03-31T02:52:23.641Z,70.02
2023-03-31T02:54:56.361Z,68.79
2023-03-31T02:57:33.083Z,69.13
2023-03-31T03:00:18.100Z,70.21
2023-03-31T03:03:05.052Z,70.50
2023-03-31T03:05:34.883Z,70.71
2023-03-31T03:08:36.621Z,70.51
2023-03-31T03:11:12.706Z,70.57
2023-03-31T03:13:40.266Z,70.92
2023-03-31T03:16:24.767Z,71.05
2023-03-31T03:19:00.856Z,69.87
2023-03-31T03:21:28.614Z,70.50
2023-03-31T03:23:55.448Z,70.70
2023-03-31T03:26:23.720Z,71.84
2023-03-31T03:28:51.265Z,71.64
2023-03-31T03:31:18.237Z,71.14
2023-03-31T03:33:44.907Z,70.84
2023-03-31T03:36:11.565Z,71.20
2023-03-31T03:38:38.244Z,70.79
2023-03-31T03:41:04.950Z,71.59
2023-03-31T03:43:31.707Z,71.32
2023-03-31T03:45:58.342Z,71.21
2023-03-31T03:48:24.951Z,70.80
2023-03-31T03:50:55.674Z,70.48
2023-03-31T03:53:22.292Z,70.71
2023-03-31T03:55:49.757Z,69.52
2023-03-31T03:58:17.197Z,70.24
2023-03-31T04:00:45.395Z,70.78
2023-03-31T04:03:12.632Z,71.28
2023-03-31T04:05:42.424Z,70.97
2023-03-31T04:08:09.110Z,71.39
2023-03-31T04:10:36.089Z,70.27
2023-03-31T04:13:02.939Z,70.91
2023-03-31T04:15:29.499Z,70.69
2023-03-31T04:17:59.001Z,70.53
2023-03-31T04:20:27.911Z,70.89
2023-03-31T04:22:57.446Z,69.22
2023-03-31T04:25:24.060Z,69.92
2023-03-31T04:27:55.049Z,69.45
2023-03-31T04:30:33.623Z,70.12
2023-03-31T04:33:04.347Z,69.50
2023-03-31T04:35:49.725Z,70.08
2023-03-31T04:38:20.581Z,69.84
2023-03-31T04:40:48.222Z,69.19
2023-03-31T04:43:15.654Z,68.79
2023-03-31T04:45:42.716Z,69.87
2023-03-31T04:48:12.102Z,70.05
2023-03-31T04:50:39.011Z,69.55
2023-03-31T04:53:05.961Z,69.69
2023-03-31T04:55:32.621Z,70.08
2023-03-31T04:57:59.168Z,70.18
2023-03-31T05:00:26.725Z,69.60
2023-03-31T05:02:53.355Z,70.63
2023-03-31T05:05:20.094Z,70.84
2023-03-31T05:07:46.711Z,70.73
2023-03-31T05:10:13.372Z,71.78
2023-03-31T05:12:40.061Z,73.29
2023-03-31T05:15:08.268Z,73.26
2023-03-31T05:17:35.582Z,72.71
2023-03-31T05:20:06.141Z,73.16
2023-03-31T05:22:34.458Z,72.81
2023-03-31T05:25:00.980Z,72.52
2023-03-31T05:27:27.557Z,72.82
2023-03-31T05:29:54.166Z,72.95
2023-03-31T05:32:20.733Z,72.74
2023-03-31T05:34:52.011Z,73.42
2023-03-31T05:37:21.936Z,72.79
2023-03-31T05:39:48.584Z,73.45
2023-03-31T05:42:15.230Z,72.63
2023-03-31T05:44:41.911Z,73.00
2023-03-31T05:47:08.485Z,72.22
2023-03-31T05:49:35.149Z,72.56
2023-03-31T05:52:01.972Z,73.08
2023-03-31T05:54:28.618Z,72.29
2023-03-31T05:56:55.502Z,71.32
2023-03-31T05:59:22.326Z,71.78
2023-03-31T06:01:49.043Z,72.35
2023-03-31T06:04:15.812Z,72.13
2023-03-31T06:06:44.398Z,72.62
2023-03-31T06:09:13.900Z,73.50
2023-03-31T06:11:40.664Z,73.06
2023-03-31T06:14:07.391Z,72.62
2023-03-31T06:16:39.431Z,72.51
2023-03-31T06:19:06.043Z,71.87
2023-03-31T06:21:35.594Z,72.63
2023-03-31T06:24:02.214Z,72.28
2023-03-31T06:26:28.832Z,72.34
2023-03-31T06:28:55.778Z,72.07
2023-03-31T06:31:23.679Z,71.28
2023-03-31T06:33:50.815Z,72.78
2023-03-31T06:36:18.913Z,71.58
2023-03-31T06:38:46.170Z,70.25
2023-03-31T06:41:13.982Z,70.61
2023-03-31T06:43:40.683Z,72.49
2023-03-31T06:46:07.856Z,71.69
2023-03-31T06:48:37.464Z,70.60
2023-03-31T06:51:08.103Z,71.88
2023-03-31T06:53:35.104Z,71.77
2023-03-31T06:56:01.696Z,72.40
2023-03-31T06:58:31.134Z,71.79
2023-03-31T07:01:00.932Z,71.71
2023-03-31T07:03:29.604Z,71.59
2023-03-31T07:05:56.660Z,70.54
2023-03-31T07:08:23.925Z,71.28
2023-03-31T07:10:58.494Z,70.81
2023-03-31T07:13:25.595Z,69.90
2023-03-31T07:15:52.721Z,69.45
2023-03-31T07:18:20.003Z,70.54
2023-03-31T07:20:52.249Z,70.03
2023-03-31T07:23:19.577Z,69.73
2023-03-31T07:25:49.305Z,70.06
2023-03-31T07:28:16.248Z,69.87
2023-03-31T07:30:42.997Z,70.48
2023-03-31T07:33:10.171Z,69.96
2023-03-31T07:35:40.688Z,70.83
2023-03-31T07:38:08.319Z,69.48
2023-03-31T07:40:34.903Z,69.87
2023-03-31T07:43:01.982Z,70.53
2023-03-31T07:45:28.633Z,69.83
2023-03-31T07:47:58.408Z,70.66
2023-03-31T07:50:27.086Z,70.69
2023-03-31T07:52:56.207Z,70.91
2023-03-31T07:55:23.890Z,69.26
2023-03-31T07:57:51.474Z,69.83
2023-03-31T08:00:18.633Z,69.30
2023-03-31T08:02:45.923Z,69.70
2023-03-31T08:05:13.460Z,69.17
2023-03-31T08:07:43.954Z,69.49
2023-03-31T08:10:12.078Z,69.69
2023-03-31T08:12:38.646Z,69.05
2023-03-31T08:15:05.924Z,68.82
2023-03-31T08:17:32.970Z,69.33
2023-03-31T08:20:03.692Z,69.16
2023-03-31T08:22:33.159Z,69.78
2023-03-31T08:25:04.245Z,69.50
2023-03-31T08:27:35.007Z,70.04
2023-03-31T08:30:06.707Z,69.90
2023-03-31T08:32:34.149Z,70.76
2023-03-31T08:35:00.846Z,69.24
2023-03-31T08:37:28.478Z,69.88
2023-03-31T08:39:55.812Z,70.62
2023-03-31T08:42:32.925Z,70.85
2023-03-31T08:45:02.252Z,71.00
2023-03-31T08:47:32.407Z,70.07
2023-03-31T08:50:00.930Z,70.75
2023-03-31T08:52:37.003Z,71.21
2023-03-31T08:55:06.499Z,71.24
2023-03-31T08:57:49.472Z,71.05
2023-03-31T09:00:22.305Z,71.36
2023-03-31T09:03:03.759Z,70.56
2023-03-31T09:05:57.325Z,70.88
2023-03-31T09:08:47.296Z,69.81
2023-03-31T09:11:32.684Z,70.26
2023-03-31T09:14:24.299Z,70.63
2023-03-31T09:16:54.086Z,71.11
2023-03-31T09:19:29.735Z,70.34
2023-03-31T09:21:57.112Z,71.25
2023-03-31T09:24:36.263Z,70.49
2023-03-31T09:27:07.390Z,70.49
2023-03-31T09:29:37.561Z,70.59
2023-03-31T09:32:13.451Z,70.20
2023-03-31T09:34:40.103Z,70.36
2023-03-31T09:37:08.988Z,70.21
2023-03-31T09:39:36.050Z,71.17
2023-03-31T09:42:02.699Z,69.95
2023-03-31T09:44:40.585Z,69.75
2023-03-31T09:47:11.614Z,69.71
2023-03-31T09:49:39.253Z,69.64
2023-03-31T09:52:16.201Z,69.29
2023-03-31T09:54:53.596Z,69.41
2023-03-31T09:57:33.335Z,70.61
2023-03-31T10:00:16.292Z,69.60
2023-03-31T10:02:45.885Z,69.61
2023-03-31T10:05:21.378Z,70.63
2023-03-31T10:07:48.041Z,70.63
2023-03-31T10:10:31.558Z,70.77
2023-03-31T10:12:58.458Z,70.43
2023-03-31T10:15:28.526Z,70.97
2023-03-31T10:17:57.995Z,71.30
2023-03-31T10:20:32.552Z,72.30
2023-03-31T10:23:17.265Z,72.13
2023-03-31T10:25:45.103Z,71.83
2023-03-31T10:28:13.065Z,71.77
2023-03-31T10:30:41.353Z,72.17
2023-03-31T10:33:22.241Z,72.52
2023-03-31T10:35:51.151Z,73.28
2023-03-31T10:38:24.178Z,73.68
2023-03-31T10:40:52.294Z,75.11
2023-03-31T10:43:21.227Z,76.90
2023-03-31T10:45:52.486Z,75.35
2023-03-31T10:48:39.841Z,75.22
2023-03-31T10:51:14.232Z,76.47
2023-03-31T10:53:42.391Z,77.09
2023-03-31T10:56:21.393Z,77.32
2023-03-31T10:59:04.473Z,79.23
2023-03-31T11:01:58.977Z,78.30
2023-03-31T11:04:43.350Z,78.07
2023-03-31T11:07:30.072Z,79.71
2023-03-31T11:10:26.098Z,79.50
2023-03-31T11:12:57.240Z,80.11
2023-03-31T11:15:29.630Z,80.12
2023-03-31T11:18:14.883Z,80.37
2023-03-31T11:20:46.377Z,80.89
2023-03-31T11:23:31.965Z,79.95
2023-03-31T11:26:07.713Z,80.60
2023-03-31T11:28:46.447Z,82.37
2023-03-31T11:31:22.127Z,80.64
2023-03-31T11:33:57.624Z,81.13
2023-03-31T11:36:42.886Z,81.80
2023-03-31T11:39:12.387Z,80.37
2023-03-31T11:41:45.820Z,80.92
2023-03-31T11:44:15.424Z,80.21
2023-03-31T11:46:42.029Z,80.19
2023-03-31T11:49:16.886Z,79.80
2023-03-31T11:51:58.834Z,79.83
2023-03-31T11:54:25.529Z,79.55
2023-03-31T11:56:53.587Z,78.88
2023-03-31T11:59:21.479Z,79.30
2023-03-31T12:01:59.282Z,78.05
2023-03-31T12:04:25.879Z,80.19
2023-03-31T12:06:54.446Z,79.44
2023-03-31T12:09:47.555Z,80.82
2023-03-31T12:12:21.371Z,80.48
2023-03-31T12:14:55.985Z,80.20
2023-03-31T12:17:29.942Z,79.71
2023-03-31T12:19:59.546Z,79.20
2023-03-31T12:22:29.148Z,81.09
2023-03-31T12:24:56.084Z,79.51
2023-03-31T12:27:34.729Z,78.40
2023-03-31T12:30:03.277Z,79.73
2023-03-31T12:32:31.475Z,79.08
2023-03-31T12:34:58.608Z,79.08
2023-03-31T12:37:34.394Z,78.94
2023-03-31T12:40:03.166Z,78.70
2023-03-31T12:42:29.703Z,78.71
2023-03-31T12:45:14.876Z,78.74
2023-03-31T12:47:53.680Z,78.27
2023-03-31T12:50:30.829Z,78.67
2023-03-31T12:53:16.241Z,78.49
2023-03-31T12:55:52.030Z,77.68
2023-03-31T12:58:25.018Z,79.26
2023-03-31T13:01:11.348Z,79.25
2023-03-31T13:03:41.891Z,78.32
2023-03-31T13:06:28.329Z,78.89
2023-03-31T13:08:58.026Z,79.01
2023-03-31T13:11:33.650Z,77.99
2023-03-31T13:14:02.410Z,77.54
2023-03-31T13:16:30.024Z,77.04
2023-03-31T13:18:57.499Z,77.60
2023-03-31T13:21:24.737Z,77.17
2023-03-31T13:23:51.445Z,76.73
2023-03-31T13:26:33.349Z,76.21
2023-03-31T13:29:17.341Z,76.53
2023-03-31T13:32:02.259Z,75.64
2023-03-31T13:34:42.367Z,75.94
2023-03-31T13:37:31.049Z,76.47
2023-03-31T13:40:16.134Z,74.89
2023-03-31T13:42:51.767Z,73.34
2023-03-31T13:45:37.310Z,74.26
2023-03-31T13:48:13.438Z,72.90
2023-03-31T13:50:52.180Z,71.01
2023-03-31T13:53:31.149Z,72.07
2023-03-31T13:56:07.941Z,69.68
2023-03-31T13:58:35.589Z,71.10
2023-03-31T14:01:11.401Z,69.58
2023-03-31T14:03:40.522Z,70.88
2023-03-31T14:06:16.168Z,68.89
2023-03-31T14:08:47.474Z,67.76
2023-03-31T14:11:23.277Z,66.43
2023-03-31T14:14:19.176Z,65.70
2023-03-31T14:16:48.594Z,65.79
2023-03-31T14:19:36.124Z,67.26
2023-03-31T14:22:24.135Z,66.90
2023-03-31T14:25:00.112Z,65.09
2023-03-31T14:27:26.793Z,65.48
2023-03-31T14:29:57.950Z,67.52
2023-03-31T14:32:29.594Z,66.86
2023-03-31T14:34:59.861Z,67.58
2023-03-31T14:37:28.258Z,67.50
2023-03-31T14:39:56.834Z,66.53
2023-03-31T14:42:27.083Z,67.35
2023-03-31T14:44:58.113Z,67.40
2023-03-31T14:47:29.782Z,66.78
2023-03-31T14:50:07.661Z,65.21
2023-03-31T14:52:35.801Z,63.78
2023-03-31T14:55:04.643Z,64.93
2023-03-31T14:57:34.612Z,64.49
2023-03-31T15:00:05.717Z,64.04
2023-03-31T15:02:37.314Z,59.50
2023-03-31T15:05:05.784Z,60.85
2023-03-31T15:07:32.580Z,60.30
2023-03-31T15:09:59.519Z,59.51
2023-03-31T15:12:28.510Z,59.54
2023-03-31T15:14:58.170Z,60.18
2023-03-31T15:17:26.581Z,59.50
2023-03-31T15:19:54.375Z,58.99
2023-03-31T15:22:30.406Z,58.66
2023-03-31T15:24:57.781Z,57.99
2023-03-31T15:27:35.912Z,58.58
2023-03-31T15:30:07.696Z,59.28
2023-03-31T15:32:41.064Z,58.24
2023-03-31T15:35:22.047Z,59.08
2023-03-31T15:37:50.571Z,60.35
2023-03-31T15:40:19.824Z,60.35
2023-03-31T15:43:01.582Z,60.77
2023-03-31T15:45:49.691Z,60.44
2023-03-31T15:48:36.610Z,60.00
2023-03-31T15:51:07.150Z,61.60
2023-03-31T15:53:41.157Z,61.93
2023-03-31T15:56:08.347Z,61.47
2023-03-31T15:58:53.930Z,61.92
2023-03-31T16:01:24.030Z,61.56
2023-03-31T16:03:55.283Z,61.45
2023-03-31T16:06:28.305Z,62.24
2023-03-31T16:09:00.795Z,62.98
2023-03-31T16:11:33.514Z,62.26
2023-03-31T16:14:01.749Z,61.42
2023-03-31T16:16:29.603Z,62.14
2023-03-31T16:19:04.178Z,62.84
2023-03-31T16:21:36.365Z,63.14
2023-03-31T16:24:05.345Z,64.40
2023-03-31T16:26:32.335Z,63.94
2023-03-31T16:29:01.044Z,63.88
2023-03-31T16:31:37.133Z,64.77
2023-03-31T16:34:04.893Z,64.68
2023-03-31T16:36:31.559Z,64.45
2023-03-31T16:39:01.894Z,65.73
2023-03-31T16:41:29.627Z,66.68
2023-03-31T16:43:56.362Z,66.80
2023-03-31T16:46:23.695Z,68.08
2023-03-31T16:48:56.250Z,67.76
2023-03-31T16:51:23.350Z,67.87
2023-03-31T16:53:50.011Z,67.53
2023-03-31T16:56:17.251Z,67.81
2023-03-31T16:58:53.800Z,68.34
2023-03-31T17:01:20.707Z,67.73
2023-03-31T17:03:48.143Z,67.56
2023-03-31T17:06:24.117Z,67.71
2023-03-31T17:08:50.746Z,66.69
2023-03-31T17:11:17.494Z,67.17
2023-03-31T17:13:44.898Z,67.31
2023-03-31T17:16:21.990Z,67.81
2023-03-31T17:18:56.224Z,67.04
2023-03-31T17:21:23.733Z,68.08
2023-03-31T17:23:50.495Z,68.32
2023-03-31T17:26:17.795Z,66.98
2023-03-31T17:28:44.532Z,68.31
2023-03-31T17:31:15.574Z,67.03
2023-03-31T17:33:42.492Z,67.37
2023-03-31T17:36:09.394Z,66.74
2023-03-31T17:38:36.154Z,67.38
2023-03-31T17:41:06.316Z,66.97
2023-03-31T17:43:33.452Z,66.77
2023-03-31T17:46:01.659Z,66.78
2023-03-31T17:48:28.782Z,67.22
2023-03-31T17:50:55.387Z,67.25
2023-03-31T17:53:22.004Z,66.83
2023-03-31T17:55:50.904Z,66.82
2023-03-31T17:58:17.564Z,67.17
2023-03-31T18:00:44.657Z,67.52
2023-03-31T18:03:11.695Z,67.45
2023-03-31T18:05:39.366Z,68.21
2023-03-31T18:08:06.249Z,68.24
2023-03-31T18:10:33.196Z,67.56
2023-03-31T18:13:02.317Z,68.05
2023-03-31T18:15:29.123Z,70.83
2023-03-31T18:17:56.147Z,70.57
2023-03-31T18:20:23.304Z,71.10
2023-03-31T18:22:49.875Z,72.71
2023-03-31T18:25:16.748Z,72.92
2023-03-31T18:27:43.587Z,72.53
2023-03-31T18:30:10.596Z,73.08
2023-03-31T18:32:38.627Z,72.89
2023-03-31T18:35:05.842Z,71.32
2023-03-31T18:37:33.789Z,71.54
2023-03-31T18:40:00.402Z,71.17
2023-03-31T18:42:27.156Z,71.71
2023-03-31T18:44:53.876Z,71.83
2023-03-31T18:47:21.122Z,70.83
2023-03-31T18:49:48.532Z,70.29
2023-03-31T18:52:17.996Z,71.07
2023-03-31T18:54:44.672Z,72.01
2023-03-31T18:57:11.738Z,70.79
2023-03-31T18:59:39.107Z,72.24
2023-03-31T19:02:08.973Z,73.66
2023-03-31T19:04:35.749Z,71.82
2023-03-31T19:07:02.279Z,71.20
2023-03-31T19:09:28.995Z,71.50
2023-03-31T19:11:57.222Z,71.10
2023-03-31T19:14:23.826Z,71.35
2023-03-31T19:16:50.685Z,71.45
2023-03-31T19:19:17.504Z,71.00
2023-03-31T19:21:44.680Z,69.94
2023-03-31T19:24:11.676Z,69.11
2023-03-31T19:26:38.351Z,68.67
2023-03-31T19:29:05.522Z,68.73
2023-03-31T19:31:40.648Z,68.70
2023-03-31T19:34:08.612Z,68.99
2023-03-31T19:36:35.458Z,68.73
2023-03-31T19:39:03.724Z,68.86
2023-03-31T19:41:31.487Z,68.92
2023-03-31T19:43:58.235Z,69.61
2023-03-31T19:46:25.395Z,68.52
2023-03-31T19:48:52.459Z,68.17
2023-03-31T19:51:19.155Z,68.65
2023-03-31T19:53:46.167Z,68.08
2023-03-31T19:56:14.677Z,67.61
2023-03-31T19:58:41.400Z,68.19
2023-03-31T20:01:13.948Z,68.58
2023-03-31T20:03:42.092Z,68.88
2023-03-31T20:06:12.699Z,68.39
2023-03-31T20:08:42.797Z,68.41
2023-03-31T20:11:12.120Z,69.52
2023-03-31T20:13:39.157Z,70.67
2023-03-31T20:16:07.934Z,70.75
2023-03-31T20:18:35.899Z,71.63
2023-03-31T20:21:07.739Z,70.48
2023-03-31T20:23:34.850Z,71.79
2023-03-31T20:26:01.382Z,72.32
2023-03-31T20:28:28.636Z,70.69
2023-03-31T20:30:58.307Z,70.89
2023-03-31T20:33:27.398Z,71.36
2023-03-31T20:36:14.179Z,70.86
2023-03-31T20:38:43.108Z,71.09
2023-03-31T20:41:10.964Z,70.81
2023-03-31T20:43:39.694Z,71.00
2023-03-31T20:46:07.519Z,71.92
2023-03-31T20:48:36.094Z,72.57
2023-03-31T20:51:03.377Z,72.38
2023-03-31T20:53:32.364Z,72.40
2023-03-31T20:55:59.406Z,71.75
2023-03-31T20:58:26.299Z,71.68
2023-03-31T21:00:56.660Z,70.67
2023-03-31T21:03:23.496Z,70.45
2023-03-31T21:05:50.646Z,70.34
2023-03-31T21:08:17.313Z,70.90
2023-03-31T21:10:45.070Z,71.07
2023-03-31T21:13:14.296Z,70.82
2023-03-31T21:15:44.280Z,70.30
2023-03-31T21:18:13.207Z,70.19
2023-03-31T21:20:39.812Z,69.86
2023-03-31T21:23:06.383Z,69.69
2023-03-31T21:25:33.151Z,70.44
2023-03-31T21:27:59.852Z,70.14
2023-03-31T21:30:26.730Z,72.09
2023-03-31T21:32:53.965Z,71.49
2023-03-31T21:35:26.741Z,72.10
2023-03-31T21:37:53.377Z,72.42
2023-03-31T21:40:21.072Z,74.00
2023-03-31T21:42:48.182Z,74.93
2023-03-31T21:45:14.833Z,74.44
2023-03-31T21:47:44.525Z,73.59
2023-03-31T21:50:11.304Z,74.04
2023-03-31T21:52:37.863Z,73.41
2023-03-31T21:55:04.612Z,74.33
2023-03-31T21:57:31.530Z,73.41
2023-03-31T21:59:58.189Z,74.55
2023-03-31T22:02:24.744Z,74.45
2023-03-31T22:04:51.577Z,73.81
2023-03-31T22:07:18.883Z,73.27
2023-03-31T22:09:45.490Z,74.58
2023-03-31T22:12:12.637Z,75.28
2023-03-31T22:14:39.262Z,74.37
2023-03-31T22:17:05.862Z,75.07
2023-03-31T22:19:32.489Z,76.36
2023-03-31T22:21:59.145Z,75.22
2023-03-31T22:24:25.808Z,74.86
2023-03-31T22:26:52.377Z,75.84
2023-03-31T22:29:19.086Z,75.51
2023-03-31T22:31:45.708Z,75.54
2023-03-31T22:34:12.411Z,75.47
2023-03-31T22:36:38.934Z,75.93
2023-03-31T22:39:08.300Z,76.73
2023-03-31T22:41:35.011Z,76.11
2023-03-31T22:44:01.653Z,75.22
2023-03-31T22:46:28.219Z,76.69
2023-03-31T22:48:55.619Z,76.91
2023-03-31T22:51:22.188Z,77.49
2023-03-31T22:53:49.456Z,76.46
2023-03-31T22:56:16.311Z,77.11
2023-03-31T22:58:42.973Z,76.26
2023-03-31T23:01:16.762Z,76.34
2023-03-31T23:03:49.624Z,76.57
2023-03-31T23:06:16.446Z,76.42
2023-03-31T23:08:44.847Z,76.71
2023-03-31T23:11:12.825Z,76.74
2023-03-31T23:13:39.640Z,76.68
2023-03-31T23:16:16.955Z,77.76
2023-03-31T23:18:46.205Z,76.83
2023-03-31T23:21:19.409Z,78.30
2023-03-31T23:23:46.388Z,77.23
2023-03-31T23:26:14.960Z,78.81
2023-03-31T23:28:44.893Z,77.76
2023-03-31T23:31:13.347Z,76.67
2023-03-31T23:33:40.930Z,76.30
2023-03-31T23:36:08.078Z,77.84
2023-03-31T23:38:35.009Z,77.50
2023-03-31T23:41:04.602Z,77.52
2023-03-31T23:43:31.340Z,76.73
2023-03-31T23:45:57.947Z,77.19
2023-03-31T23:48:24.961Z,77.21
2023-03-31T23:50:51.568Z,77.50
2023-03-31T23:53:18.185Z,77.27
2023-03-31T23:55:54.834Z,78.35
2023-03-31T23:58:21.507Z,76.92
